createdAt,value
2017-03-11T00:00:37.116Z,1015.11
2017-03-11T00:01:37.117Z,1015.06
2017-03-11T00:02:37.065Z,1015.06
2017-03-11T00:03:37.089Z,1015.08
2017-03-11T00:04:37.013Z,1015.05
2017-03-11T00:05:36.987Z,1015.05
2017-03-11T00:06:36.962Z,1014.97
2017-03-11T00:07:36.936Z,1015
2017-03-11T00:08:36.916Z,1014.99
2017-03-11T00:09:36.885Z,1014.95
2017-03-11T00:10:36.859Z,1014.95
2017-03-11T00:11:36.938Z,1014.94
2017-03-11T00:12:36.810Z,1014.93
2017-03-11T00:13:36.832Z,1014.94
2017-03-11T00:14:36.756Z,1014.95
2017-03-11T00:15:36.732Z,1014.88
2017-03-11T00:16:36.705Z,1014.92
2017-03-11T00:17:36.729Z,1014.88
2017-03-11T00:18:36.653Z,1014.85
2017-03-11T00:19:36.629Z,1014.81
2017-03-11T00:20:36.600Z,1014.81
2017-03-11T00:21:36.575Z,1014.8
2017-03-11T00:22:36.677Z,1014.8
2017-03-11T00:23:36.545Z,1014.8
2017-03-11T00:24:36.497Z,1014.8
2017-03-11T00:25:36.472Z,1014.82
2017-03-11T00:26:36.447Z,1014.82
2017-03-11T00:27:36.419Z,1014.85
2017-03-11T00:28:36.393Z,1014.85
2017-03-11T00:29:36.368Z,1014.9
2017-03-11T00:30:36.343Z,1014.88
2017-03-11T00:31:36.316Z,1014.87
2017-03-11T00:32:36.288Z,1014.88
2017-03-11T00:33:36.264Z,1014.85
2017-03-11T00:34:36.237Z,1014.84
2017-03-11T00:35:36.210Z,1014.81
2017-03-11T00:36:36.184Z,1014.84
2017-03-11T00:37:36.158Z,1014.82
2017-03-11T00:38:36.132Z,1014.85
2017-03-11T00:39:36.105Z,1014.83
2017-03-11T00:40:36.079Z,1014.88
2017-03-11T00:41:36.053Z,1014.88
2017-03-11T00:42:36.026Z,1014.91
2017-03-11T00:43:36.002Z,1014.96
2017-03-11T00:44:35.974Z,1014.96
2017-03-11T00:45:35.948Z,1014.97
2017-03-11T00:46:35.921Z,1014.96
2017-03-11T00:47:35.926Z,1014.97
2017-03-11T00:48:35.871Z,1014.95
2017-03-11T00:49:35.843Z,1014.96
2017-03-11T00:50:35.817Z,1014.97
2017-03-11T00:51:35.792Z,1014.98
2017-03-11T00:52:35.767Z,1014.99
2017-03-11T00:53:35.738Z,1015
2017-03-11T00:54:35.712Z,1014.97
2017-03-11T00:55:35.687Z,1015.02
2017-03-11T00:56:35.662Z,1015.04
2017-03-11T00:57:35.634Z,1015
2017-03-11T00:58:35.607Z,1015.05
2017-03-11T00:59:35.583Z,1015.02
2017-03-11T01:00:35.556Z,1015.01
2017-03-11T01:01:35.529Z,1015.01
2017-03-11T01:02:35.504Z,1015.02
2017-03-11T01:03:35.478Z,1014.99
2017-03-11T01:04:35.451Z,1014.98
2017-03-11T01:05:35.426Z,1014.98
2017-03-11T01:06:35.400Z,1014.96
2017-03-11T01:07:35.374Z,1014.93
2017-03-11T01:08:35.350Z,1014.95
2017-03-11T01:09:35.321Z,1014.94
2017-03-11T01:10:35.296Z,1014.93
2017-03-11T01:11:35.268Z,1014.93
2017-03-11T01:12:35.344Z,1014.92
2017-03-11T01:13:35.217Z,1014.91
2017-03-11T01:14:35.191Z,1014.92
2017-03-11T01:15:35.233Z,1014.92
2017-03-11T01:16:35.139Z,1014.88
2017-03-11T01:17:35.113Z,1014.87
2017-03-11T01:18:35.087Z,1014.81
2017-03-11T01:19:35.061Z,1014.79
2017-03-11T01:20:35.035Z,1014.7
2017-03-11T01:21:35.009Z,1014.67
2017-03-11T01:22:34.982Z,1014.64
2017-03-11T01:23:34.957Z,1014.64
2017-03-11T01:24:34.932Z,1014.63
2017-03-11T01:25:34.907Z,1014.61
2017-03-11T01:26:34.879Z,1014.58
2017-03-11T01:27:34.854Z,1014.55
2017-03-11T01:28:34.827Z,1014.57
2017-03-11T01:29:34.803Z,1014.54
2017-03-11T01:30:34.776Z,1014.56
2017-03-11T01:31:34.751Z,1014.51
2017-03-11T01:32:34.725Z,1014.49
2017-03-11T01:33:34.699Z,1014.43
2017-03-11T01:34:34.673Z,1014.45
2017-03-11T01:35:34.647Z,1014.41
2017-03-11T01:36:34.621Z,1014.36
2017-03-11T01:37:34.595Z,1014.34
2017-03-11T01:38:34.569Z,1014.3
2017-03-11T01:39:34.544Z,1014.31
2017-03-11T01:40:34.517Z,1014.28
2017-03-11T01:41:34.491Z,1014.29
2017-03-11T01:42:34.466Z,1014.29
2017-03-11T01:43:34.440Z,1014.3
2017-03-11T01:44:34.413Z,1014.22
2017-03-11T01:45:34.388Z,1014.22
2017-03-11T01:46:34.364Z,1014.17
2017-03-11T01:47:34.337Z,1014.13
2017-03-11T01:48:34.310Z,1014.21
2017-03-11T01:49:34.285Z,1014.17
2017-03-11T01:50:34.258Z,1014.17
2017-03-11T01:51:34.231Z,1014.15
2017-03-11T01:52:34.207Z,1014.19
2017-03-11T01:53:34.181Z,1014.14
2017-03-11T01:54:34.155Z,1014.12
2017-03-11T01:55:34.129Z,1014.08
2017-03-11T01:56:34.103Z,1014.15
2017-03-11T01:57:34.079Z,1014.09
2017-03-11T01:58:34.053Z,1014.1
2017-03-11T01:59:34.025Z,1014.04
2017-03-11T02:00:33.999Z,1014.02
2017-03-11T02:01:33.974Z,1013.99
2017-03-11T02:02:33.947Z,1014.04
2017-03-11T02:03:33.921Z,1013.95
2017-03-11T02:04:33.896Z,1014.01
2017-03-11T02:05:33.871Z,1014.03
2017-03-11T02:06:33.845Z,1014.04
2017-03-11T02:07:33.821Z,1014.03
2017-03-11T02:08:33.792Z,1013.98
2017-03-11T02:09:33.767Z,1013.91
2017-03-11T02:10:33.741Z,1013.91
2017-03-11T02:11:33.715Z,1013.9
2017-03-11T02:12:33.691Z,1013.88
2017-03-11T02:13:33.663Z,1013.84
2017-03-11T02:14:33.638Z,1013.83
2017-03-11T02:15:33.612Z,1013.78
2017-03-11T02:16:33.585Z,1013.8
2017-03-11T02:17:33.560Z,1013.77
2017-03-11T02:18:33.535Z,1013.77
2017-03-11T02:19:33.507Z,1013.74
2017-03-11T02:20:33.481Z,1013.77
2017-03-11T02:21:33.455Z,1013.77
2017-03-11T02:22:33.430Z,1013.69
2017-03-11T02:23:33.404Z,1013.71
2017-03-11T02:24:33.378Z,1013.68
2017-03-11T02:25:33.352Z,1013.72
2017-03-11T02:26:33.327Z,1013.71
2017-03-11T02:27:33.304Z,1013.7
2017-03-11T02:28:33.275Z,1013.65
2017-03-11T02:29:33.249Z,1013.65
2017-03-11T02:30:33.227Z,1013.65
2017-03-11T02:31:33.197Z,1013.61
2017-03-11T02:32:33.172Z,1013.6
2017-03-11T02:33:33.147Z,1013.56
2017-03-11T02:34:33.122Z,1013.59
2017-03-11T02:35:33.096Z,1013.56
2017-03-11T02:36:33.069Z,1013.53
2017-03-11T02:37:33.046Z,1013.5
2017-03-11T02:38:33.020Z,1013.53
2017-03-11T02:39:32.994Z,1013.49
2017-03-11T02:40:33.084Z,1013.46
2017-03-11T02:41:33.029Z,1013.49
2017-03-11T02:42:32.927Z,1013.47
2017-03-11T02:43:32.892Z,1013.47
2017-03-11T02:44:32.868Z,1013.45
2017-03-11T02:45:32.844Z,1013.45
2017-03-11T02:46:32.816Z,1013.46
2017-03-11T02:47:32.791Z,1013.47
2017-03-11T02:48:32.768Z,1013.49
2017-03-11T02:49:32.741Z,1013.5
2017-03-11T02:50:32.716Z,1013.5
2017-03-11T02:51:32.690Z,1013.52
2017-03-11T02:52:32.666Z,1013.46
2017-03-11T02:53:32.641Z,1013.45
2017-03-11T02:54:32.615Z,1013.42
2017-03-11T02:55:32.590Z,1013.43
2017-03-11T02:56:32.566Z,1013.4
2017-03-11T02:57:32.540Z,1013.37
2017-03-11T02:58:32.514Z,1013.35
2017-03-11T02:59:32.490Z,1013.33
2017-03-11T03:00:32.465Z,1013.29
2017-03-11T03:01:32.438Z,1013.25
2017-03-11T03:02:32.414Z,1013.27
2017-03-11T03:03:32.389Z,1013.25
2017-03-11T03:04:32.364Z,1013.29
2017-03-11T03:05:32.339Z,1013.24
2017-03-11T03:06:32.314Z,1013.34
2017-03-11T03:07:32.289Z,1013.31
2017-03-11T03:08:32.263Z,1013.31
2017-03-11T03:09:32.239Z,1013.32
2017-03-11T03:10:32.214Z,1013.31
2017-03-11T03:11:32.190Z,1013.3
2017-03-11T03:12:32.164Z,1013.29
2017-03-11T03:13:32.139Z,1013.29
2017-03-11T03:14:32.116Z,1013.29
2017-03-11T03:15:32.089Z,1013.31
2017-03-11T03:16:32.067Z,1013.29
2017-03-11T03:17:32.039Z,1013.34
2017-03-11T03:18:32.015Z,1013.3
2017-03-11T03:19:31.989Z,1013.31
2017-03-11T03:20:31.965Z,1013.32
2017-03-11T03:21:31.940Z,1013.3
2017-03-11T03:22:31.916Z,1013.3
2017-03-11T03:23:31.891Z,1013.27
2017-03-11T03:24:31.864Z,1013.32
2017-03-11T03:25:31.840Z,1013.28
2017-03-11T03:26:31.814Z,1013.31
2017-03-11T03:27:31.790Z,1013.33
2017-03-11T03:28:31.766Z,1013.35
2017-03-11T03:29:31.741Z,1013.37
2017-03-11T03:30:31.716Z,1013.33
2017-03-11T03:31:31.691Z,1013.35
2017-03-11T03:32:31.667Z,1013.34
2017-03-11T03:33:31.642Z,1013.34
2017-03-11T03:34:31.616Z,1013.28
2017-03-11T03:35:31.592Z,1013.27
2017-03-11T03:36:31.568Z,1013.23
2017-03-11T03:37:31.543Z,1013.25
2017-03-11T03:38:31.518Z,1013.27
2017-03-11T03:39:31.493Z,1013.27
2017-03-11T03:40:31.469Z,1013.33
2017-03-11T03:41:31.445Z,1013.3
2017-03-11T03:42:31.420Z,1013.27
2017-03-11T03:43:31.396Z,1013.26
2017-03-11T03:44:31.370Z,1013.28
2017-03-11T03:45:31.345Z,1013.29
2017-03-11T03:46:31.321Z,1013.24
2017-03-11T03:47:31.296Z,1013.26
2017-03-11T03:48:31.272Z,1013.25
2017-03-11T03:49:31.248Z,1013.25
2017-03-11T03:50:31.222Z,1013.22
2017-03-11T03:51:31.199Z,1013.21
2017-03-11T03:52:31.174Z,1013.23
2017-03-11T03:53:31.149Z,1013.2
2017-03-11T03:54:31.126Z,1013.24
2017-03-11T03:55:31.100Z,1013.2
2017-03-11T03:56:31.075Z,1013.2
2017-03-11T03:57:31.051Z,1013.24
2017-03-11T03:58:31.027Z,1013.22
2017-03-11T03:59:31.001Z,1013.25
2017-03-11T04:00:30.977Z,1013.21
2017-03-11T04:01:30.953Z,1013.21
2017-03-11T04:02:30.979Z,1013.2
2017-03-11T04:03:30.932Z,1013.22
2017-03-11T04:04:30.879Z,1013.24
2017-03-11T04:05:30.855Z,1013.26
2017-03-11T04:06:30.830Z,1013.24
2017-03-11T04:07:30.806Z,1013.25
2017-03-11T04:08:30.781Z,1013.23
2017-03-11T04:09:30.757Z,1013.19
2017-03-11T04:10:30.732Z,1013.19
2017-03-11T04:11:30.708Z,1013.17
2017-03-11T04:12:30.684Z,1013.17
2017-03-11T04:13:30.660Z,1013.2
2017-03-11T04:14:30.634Z,1013.18
2017-03-11T04:15:30.612Z,1013.16
2017-03-11T04:16:30.586Z,1013.12
2017-03-11T04:17:30.568Z,1013.12
2017-03-11T04:18:30.537Z,1013.1
2017-03-11T04:19:30.513Z,1013.15
2017-03-11T04:20:30.488Z,1013.12
2017-03-11T04:21:30.463Z,1013.16
2017-03-11T04:22:30.440Z,1013.12
2017-03-11T04:23:30.415Z,1013.14
2017-03-11T04:24:30.391Z,1013.11
2017-03-11T04:25:30.366Z,1013.08
2017-03-11T04:26:30.342Z,1013.11
2017-03-11T04:27:30.317Z,1013.08
2017-03-11T04:28:30.294Z,1013.11
2017-03-11T04:29:30.269Z,1013.1
2017-03-11T04:30:30.244Z,1013.1
2017-03-11T04:31:30.219Z,1013.09
2017-03-11T04:32:30.195Z,1013.09
2017-03-11T04:33:30.170Z,1013.06
2017-03-11T04:34:30.146Z,1013.02
2017-03-11T04:35:30.122Z,1013.03
2017-03-11T04:36:30.097Z,1013.04
2017-03-11T04:37:30.073Z,1013.02
2017-03-11T04:38:30.050Z,1013.05
2017-03-11T04:39:30.032Z,1012.97
2017-03-11T04:40:30.000Z,1012.99
2017-03-11T04:41:29.977Z,1012.96
2017-03-11T04:42:29.953Z,1012.97
2017-03-11T04:43:29.927Z,1012.98
2017-03-11T04:44:29.903Z,1012.96
2017-03-11T04:45:29.879Z,1012.97
2017-03-11T04:46:29.855Z,1012.92
2017-03-11T04:47:29.829Z,1012.95
2017-03-11T04:48:29.807Z,1012.89
2017-03-11T04:49:29.780Z,1012.86
2017-03-11T04:50:29.756Z,1012.91
2017-03-11T04:51:29.732Z,1012.92
2017-03-11T04:52:29.708Z,1012.87
2017-03-11T04:53:29.685Z,1012.9
2017-03-11T04:54:29.659Z,1012.88
2017-03-11T04:55:29.634Z,1012.89
2017-03-11T04:56:29.610Z,1012.91
2017-03-11T04:57:29.585Z,1012.86
2017-03-11T04:58:29.561Z,1012.9
2017-03-11T04:59:29.536Z,1012.87
2017-03-11T05:00:29.511Z,1012.87
2017-03-11T05:01:29.486Z,1012.84
2017-03-11T05:02:29.462Z,1012.81
2017-03-11T05:03:29.437Z,1012.8
2017-03-11T05:04:29.414Z,1012.83
2017-03-11T05:05:29.388Z,1012.79
2017-03-11T05:06:29.364Z,1012.81
2017-03-11T05:07:29.339Z,1012.85
2017-03-11T05:08:29.314Z,1012.81
2017-03-11T05:09:29.290Z,1012.81
2017-03-11T05:10:29.266Z,1012.78
2017-03-11T05:11:29.241Z,1012.77
2017-03-11T05:12:29.216Z,1012.76
2017-03-11T05:13:29.192Z,1012.76
2017-03-11T05:14:29.168Z,1012.78
2017-03-11T05:15:29.167Z,1012.78
2017-03-11T05:16:29.118Z,1012.77
2017-03-11T05:17:29.094Z,1012.82
2017-03-11T05:18:29.069Z,1012.8
2017-03-11T05:19:29.044Z,1012.8
2017-03-11T05:20:29.020Z,1012.84
2017-03-11T05:21:28.996Z,1012.79
2017-03-11T05:22:28.971Z,1012.77
2017-03-11T05:23:28.945Z,1012.79
2017-03-11T05:24:28.921Z,1012.75
2017-03-11T05:25:28.898Z,1012.72
2017-03-11T05:26:28.873Z,1012.74
2017-03-11T05:27:28.848Z,1012.78
2017-03-11T05:28:28.825Z,1012.78
2017-03-11T05:29:28.800Z,1012.75
2017-03-11T05:30:28.775Z,1012.75
2017-03-11T05:31:28.751Z,1012.75
2017-03-11T05:32:28.726Z,1012.73
2017-03-11T05:33:28.701Z,1012.67
2017-03-11T05:34:28.676Z,1012.68
2017-03-11T05:35:28.653Z,1012.68
2017-03-11T05:36:28.627Z,1012.63
2017-03-11T05:37:28.603Z,1012.65
2017-03-11T05:38:28.578Z,1012.63
2017-03-11T05:39:28.553Z,1012.63
2017-03-11T05:40:28.529Z,1012.61
2017-03-11T05:41:28.504Z,1012.61
2017-03-11T05:42:28.479Z,1012.6
2017-03-11T05:43:28.455Z,1012.63
2017-03-11T05:44:28.431Z,1012.61
2017-03-11T05:45:28.405Z,1012.6
2017-03-11T05:46:28.381Z,1012.6
2017-03-11T05:47:28.356Z,1012.6
2017-03-11T05:48:28.331Z,1012.58
2017-03-11T05:49:28.306Z,1012.55
2017-03-11T05:50:28.282Z,1012.57
2017-03-11T05:51:28.256Z,1012.54
2017-03-11T05:52:28.232Z,1012.54
2017-03-11T05:53:28.208Z,1012.52
2017-03-11T05:54:28.181Z,1012.54
2017-03-11T05:55:28.159Z,1012.54
2017-03-11T05:56:28.132Z,1012.53
2017-03-11T05:57:28.109Z,1012.53
2017-03-11T05:58:28.082Z,1012.53
2017-03-11T05:59:28.058Z,1012.55
2017-03-11T06:00:28.033Z,1012.52
2017-03-11T06:01:28.007Z,1012.48
2017-03-11T06:02:27.982Z,1012.46
2017-03-11T06:03:27.960Z,1012.5
2017-03-11T06:04:27.933Z,1012.48
2017-03-11T06:05:27.908Z,1012.47
2017-03-11T06:06:27.883Z,1012.54
2017-03-11T06:07:27.858Z,1012.52
2017-03-11T06:08:27.833Z,1012.53
2017-03-11T06:09:27.808Z,1012.46
2017-03-11T06:10:27.787Z,1012.48
2017-03-11T06:11:27.758Z,1012.47
2017-03-11T06:12:27.733Z,1012.45
2017-03-11T06:13:27.707Z,1012.45
2017-03-11T06:14:27.683Z,1012.4
2017-03-11T06:15:27.658Z,1012.44
2017-03-11T06:16:27.633Z,1012.43
2017-03-11T06:17:27.608Z,1012.42
2017-03-11T06:18:27.582Z,1012.41
2017-03-11T06:19:27.556Z,1012.41
2017-03-11T06:20:27.531Z,1012.42
2017-03-11T06:21:27.507Z,1012.44
2017-03-11T06:22:27.479Z,1012.38
2017-03-11T06:23:27.455Z,1012.43
2017-03-11T06:24:27.431Z,1012.43
2017-03-11T06:25:27.403Z,1012.43
2017-03-11T06:26:27.379Z,1012.44
2017-03-11T06:27:27.353Z,1012.41
2017-03-11T06:28:27.328Z,1012.42
2017-03-11T06:29:27.302Z,1012.39
2017-03-11T06:30:27.277Z,1012.41
2017-03-11T06:31:27.253Z,1012.42
2017-03-11T06:32:27.227Z,1012.4
2017-03-11T06:33:27.201Z,1012.38
2017-03-11T06:34:27.175Z,1012.41
2017-03-11T06:35:27.150Z,1012.41
2017-03-11T06:36:27.123Z,1012.4
2017-03-11T06:37:27.100Z,1012.4
2017-03-11T06:38:27.073Z,1012.42
2017-03-11T06:39:27.048Z,1012.42
2017-03-11T06:40:27.021Z,1012.42
2017-03-11T06:41:26.997Z,1012.43
2017-03-11T06:42:26.971Z,1012.43
2017-03-11T06:43:26.946Z,1012.42
2017-03-11T06:44:26.922Z,1012.41
2017-03-11T06:45:26.894Z,1012.41
2017-03-11T06:46:26.869Z,1012.38
2017-03-11T06:47:26.843Z,1012.4
2017-03-11T06:48:26.818Z,1012.36
2017-03-11T06:49:26.792Z,1012.39
2017-03-11T06:50:26.768Z,1012.39
2017-03-11T06:51:26.741Z,1012.39
2017-03-11T06:52:26.717Z,1012.36
2017-03-11T06:53:26.691Z,1012.35
2017-03-11T06:54:26.665Z,1012.35
2017-03-11T06:55:26.640Z,1012.33
2017-03-11T06:56:26.614Z,1012.33
2017-03-11T06:57:26.589Z,1012.33
2017-03-11T06:58:26.563Z,1012.29
2017-03-11T06:59:26.538Z,1012.35
2017-03-11T07:00:26.514Z,1012.33
2017-03-11T07:01:26.488Z,1012.34
2017-03-11T07:02:26.463Z,1012.32
2017-03-11T07:03:26.441Z,1012.36
2017-03-11T07:04:26.414Z,1012.38
2017-03-11T07:05:26.387Z,1012.37
2017-03-11T07:06:26.361Z,1012.39
2017-03-11T07:07:26.337Z,1012.37
2017-03-11T07:08:26.313Z,1012.38
2017-03-11T07:09:26.286Z,1012.36
2017-03-11T07:10:26.261Z,1012.36
2017-03-11T07:11:26.237Z,1012.4
2017-03-11T07:12:26.211Z,1012.42
2017-03-11T07:13:26.185Z,1012.42
2017-03-11T07:14:26.161Z,1012.41
2017-03-11T07:15:26.137Z,1012.4
2017-03-11T07:16:26.111Z,1012.37
2017-03-11T07:17:26.084Z,1012.38
2017-03-11T07:18:26.060Z,1012.38
2017-03-11T07:19:26.035Z,1012.37
2017-03-11T07:20:26.010Z,1012.37
2017-03-11T07:21:25.984Z,1012.4
2017-03-11T07:22:26.009Z,1012.37
2017-03-11T07:23:25.936Z,1012.38
2017-03-11T07:24:25.909Z,1012.45
2017-03-11T07:25:25.885Z,1012.39
2017-03-11T07:26:25.860Z,1012.42
2017-03-11T07:27:25.834Z,1012.39
2017-03-11T07:28:25.809Z,1012.39
2017-03-11T07:29:25.785Z,1012.43
2017-03-11T07:30:25.759Z,1012.43
2017-03-11T07:31:25.735Z,1012.44
2017-03-11T07:32:25.709Z,1012.46
2017-03-11T07:33:25.684Z,1012.47
2017-03-11T07:34:25.661Z,1012.48
2017-03-11T07:35:25.635Z,1012.46
2017-03-11T07:36:25.610Z,1012.47
2017-03-11T07:37:25.584Z,1012.43
2017-03-11T07:38:25.561Z,1012.45
2017-03-11T07:39:25.536Z,1012.42
2017-03-11T07:40:25.512Z,1012.4
2017-03-11T07:41:25.537Z,1012.39
2017-03-11T07:42:25.462Z,1012.38
2017-03-11T07:43:25.438Z,1012.42
2017-03-11T07:44:25.415Z,1012.42
2017-03-11T07:45:25.390Z,1012.39
2017-03-11T07:46:25.364Z,1012.4
2017-03-11T07:47:25.340Z,1012.4
2017-03-11T07:48:25.316Z,1012.39
2017-03-11T07:49:25.293Z,1012.39
2017-03-11T07:50:25.270Z,1012.35
2017-03-11T07:51:25.246Z,1012.35
2017-03-11T07:52:25.221Z,1012.3
2017-03-11T07:53:25.196Z,1012.29
2017-03-11T07:54:25.174Z,1012.29
2017-03-11T07:55:25.150Z,1012.29
2017-03-11T07:56:25.127Z,1012.28
2017-03-11T07:57:25.101Z,1012.3
2017-03-11T07:58:25.077Z,1012.31
2017-03-11T07:59:25.053Z,1012.3
2017-03-11T08:00:25.030Z,1012.34
2017-03-11T08:01:25.005Z,1012.3
2017-03-11T08:02:24.981Z,1012.31
2017-03-11T08:03:24.958Z,1012.34
2017-03-11T08:04:24.933Z,1012.31
2017-03-11T08:05:24.913Z,1012.29
2017-03-11T08:06:24.886Z,1012.31
2017-03-11T08:07:24.862Z,1012.3
2017-03-11T08:08:40.691Z,1012.26
2017-03-11T08:09:24.816Z,1012.25
2017-03-11T08:11:19.257Z,1012.27
2017-03-11T08:11:29.759Z,1012.23
2017-03-11T08:12:29.725Z,1012.2
2017-03-11T08:13:29.702Z,1012.22
2017-03-11T08:19:17.455Z,1012.25
2017-03-11T08:21:48.918Z,1012.25
2017-03-11T08:29:35.868Z,1012.19
2017-03-11T08:31:54.661Z,1012.16
2017-03-11T08:32:56.461Z,1012.15
2017-03-11T08:35:24.469Z,1012.18
2017-03-11T08:36:26.382Z,1012.23
2017-03-11T08:38:29.477Z,1012.24
2017-03-11T08:39:02.984Z,1012.24
2017-03-11T08:40:11.641Z,1012.25
2017-03-11T08:44:04.136Z,1012.19
2017-03-11T08:44:22.267Z,1012.25
2017-03-11T08:52:23.210Z,1012.13
2017-03-11T09:18:58.995Z,1012.05
2017-03-11T09:27:22.675Z,1011.91
2017-03-11T11:29:32.421Z,1011.1
2017-03-11T11:31:12.733Z,1011.04
